createdAt,value
2019-01-13T00:00:14.707Z,1022.85
2019-01-13T00:00:55.365Z,1022.87
2019-01-13T00:01:36.709Z,1022.83
2019-01-13T00:02:17.761Z,1022.87
2019-01-13T00:02:58.404Z,1022.89
2019-01-13T00:03:39.117Z,1022.87
2019-01-13T00:04:19.964Z,1022.87
2019-01-13T00:05:00.769Z,1022.93
2019-01-13T00:05:41.727Z,1022.91
2019-01-13T00:06:22.453Z,1022.88
2019-01-13T00:07:03.038Z,1022.88
2019-01-13T00:07:43.654Z,1022.89
2019-01-13T00:08:24.514Z,1022.91
2019-01-13T00:09:05.127Z,1022.91
2019-01-13T00:09:45.752Z,1022.91
2019-01-13T00:12:01.074Z,1022.85
2019-01-13T00:12:41.702Z,1022.79
2019-01-13T00:13:22.380Z,1022.76
2019-01-13T00:14:02.992Z,1022.78
2019-01-13T00:14:43.586Z,1022.71
2019-01-13T00:15:24.194Z,1022.74
2019-01-13T00:16:04.821Z,1022.74
2019-01-13T00:16:45.446Z,1022.7
2019-01-13T00:17:26.184Z,1022.75
2019-01-13T00:18:06.783Z,1022.77
2019-01-13T00:18:47.418Z,1022.76
2019-01-13T00:19:28.124Z,1022.76
2019-01-13T00:20:08.817Z,1022.79
2019-01-13T00:20:49.379Z,1022.79
2019-01-13T00:21:29.967Z,1022.81
2019-01-13T00:22:10.569Z,1022.81
2019-01-13T00:22:51.280Z,1022.78
2019-01-13T00:23:33.671Z,1022.8
2019-01-13T00:24:14.232Z,1022.8
2019-01-13T00:24:54.882Z,1022.79
2019-01-13T00:25:35.503Z,1022.77
2019-01-13T00:26:16.137Z,1022.77
2019-01-13T00:26:56.733Z,1022.77
2019-01-13T00:27:37.345Z,1022.75
2019-01-13T00:28:17.989Z,1022.79
2019-01-13T00:28:58.608Z,1022.83
2019-01-13T00:29:39.251Z,1022.81
2019-01-13T00:30:19.860Z,1022.82
2019-01-13T00:31:00.482Z,1022.81
2019-01-13T00:31:41.094Z,1022.84
2019-01-13T00:32:21.720Z,1022.84
2019-01-13T00:33:02.420Z,1022.84
2019-01-13T00:33:43.062Z,1022.88
2019-01-13T00:34:23.692Z,1022.8
2019-01-13T00:35:04.327Z,1022.85
2019-01-13T00:35:45.220Z,1022.83
2019-01-13T00:36:25.930Z,1022.85
2019-01-13T00:37:06.554Z,1022.83
2019-01-13T00:37:47.234Z,1022.84
2019-01-13T00:38:27.841Z,1022.82
2019-01-13T00:39:08.450Z,1022.83
2019-01-13T00:39:49.153Z,1022.8
2019-01-13T00:40:29.814Z,1022.85
2019-01-13T00:41:10.468Z,1022.81
2019-01-13T00:41:51.153Z,1022.78
2019-01-13T00:42:31.729Z,1022.8
2019-01-13T00:43:12.404Z,1022.79
2019-01-13T00:43:52.971Z,1022.8
2019-01-13T00:44:33.585Z,1022.8
2019-01-13T00:45:14.382Z,1022.81
2019-01-13T00:45:55.120Z,1022.76
2019-01-13T00:46:35.768Z,1022.78
2019-01-13T00:47:16.416Z,1022.79
2019-01-13T00:47:57.070Z,1022.79
2019-01-13T00:48:37.692Z,1022.83
2019-01-13T00:49:18.369Z,1022.78
2019-01-13T00:49:59.088Z,1022.83
2019-01-13T00:50:39.708Z,1022.81
2019-01-13T00:51:20.384Z,1022.82
2019-01-13T00:52:01.116Z,1022.81
2019-01-13T00:52:41.719Z,1022.84
2019-01-13T00:53:22.340Z,1022.85
2019-01-13T00:54:03.045Z,1022.83
2019-01-13T00:54:43.895Z,1022.87
2019-01-13T00:55:24.583Z,1022.85
2019-01-13T00:56:05.234Z,1022.85
2019-01-13T00:56:45.836Z,1022.82
2019-01-13T00:57:26.450Z,1022.86
2019-01-13T00:58:07.047Z,1022.84
2019-01-13T00:58:47.706Z,1022.81
2019-01-13T00:59:28.384Z,1022.85
2019-01-13T01:00:09.035Z,1022.88
2019-01-13T01:00:49.656Z,1022.83
2019-01-13T01:01:30.302Z,1022.82
2019-01-13T01:02:10.893Z,1022.83
2019-01-13T01:02:51.536Z,1022.86
2019-01-13T01:03:32.144Z,1022.82
2019-01-13T01:04:12.804Z,1022.82
2019-01-13T01:04:53.458Z,1022.82
2019-01-13T01:05:34.093Z,1022.82
2019-01-13T01:06:14.707Z,1022.78
2019-01-13T01:06:55.364Z,1022.77
2019-01-13T01:07:36.026Z,1022.76
2019-01-13T01:08:16.590Z,1022.76
2019-01-13T01:08:57.210Z,1022.72
2019-01-13T01:09:37.939Z,1022.73
2019-01-13T01:10:18.504Z,1022.71
2019-01-13T01:10:59.136Z,1022.69
2019-01-13T01:11:39.756Z,1022.66
2019-01-13T01:12:20.381Z,1022.64
2019-01-13T01:13:00.999Z,1022.63
2019-01-13T01:13:41.666Z,1022.66
2019-01-13T01:14:22.318Z,1022.69
2019-01-13T01:15:02.932Z,1022.69
2019-01-13T01:15:43.538Z,1022.7
2019-01-13T01:16:24.201Z,1022.69
2019-01-13T01:17:04.841Z,1022.69
2019-01-13T01:17:45.456Z,1022.72
2019-01-13T01:18:26.077Z,1022.68
2019-01-13T01:19:06.709Z,1022.67
2019-01-13T01:19:47.320Z,1022.69
2019-01-13T01:20:27.950Z,1022.65
2019-01-13T01:21:08.592Z,1022.64
2019-01-13T01:21:49.579Z,1022.66
2019-01-13T01:22:29.868Z,1022.65
2019-01-13T01:23:10.542Z,1022.64
2019-01-13T01:23:51.162Z,1022.68
2019-01-13T01:24:31.774Z,1022.68
2019-01-13T01:25:12.458Z,1022.71
2019-01-13T01:25:53.382Z,1022.7
2019-01-13T01:26:33.971Z,1022.72
2019-01-13T01:27:14.588Z,1022.7
2019-01-13T01:27:55.192Z,1022.74
2019-01-13T01:28:35.801Z,1022.66
2019-01-13T01:29:16.507Z,1022.7
2019-01-13T01:29:57.156Z,1022.75
2019-01-13T01:30:37.914Z,1022.71
2019-01-13T01:31:18.454Z,1022.71
2019-01-13T01:31:59.074Z,1022.75
2019-01-13T01:32:39.807Z,1022.71
2019-01-13T01:33:25.823Z,1022.71
2019-01-13T01:34:00.964Z,1022.73
2019-01-13T01:34:41.561Z,1022.74
2019-01-13T01:35:22.182Z,1022.75
2019-01-13T01:36:02.791Z,1022.75
2019-01-13T01:36:43.432Z,1022.78
2019-01-13T01:37:24.056Z,1022.77
2019-01-13T01:38:04.648Z,1022.8
2019-01-13T01:38:45.314Z,1022.76
2019-01-13T01:39:25.895Z,1022.79
2019-01-13T01:40:06.508Z,1022.78
2019-01-13T01:40:47.122Z,1022.72
2019-01-13T01:41:27.736Z,1022.72
2019-01-13T01:42:08.335Z,1022.7
2019-01-13T01:42:48.937Z,1022.73
2019-01-13T01:43:29.538Z,1022.7
2019-01-13T01:44:10.150Z,1022.74
2019-01-13T01:44:50.754Z,1022.77
2019-01-13T01:45:31.350Z,1022.72
2019-01-13T01:46:11.946Z,1022.75
2019-01-13T01:46:52.570Z,1022.72
2019-01-13T01:47:33.195Z,1022.74
2019-01-13T01:48:13.794Z,1022.76
2019-01-13T01:48:54.402Z,1022.74
2019-01-13T01:49:35.038Z,1022.7
2019-01-13T01:50:15.649Z,1022.77
2019-01-13T01:50:56.269Z,1022.77
2019-01-13T01:51:36.873Z,1022.73
2019-01-13T01:52:17.520Z,1022.74
2019-01-13T01:52:58.140Z,1022.74
2019-01-13T01:53:38.818Z,1022.78
2019-01-13T01:54:19.434Z,1022.76
2019-01-13T01:55:00.087Z,1022.7
2019-01-13T01:55:40.679Z,1022.72
2019-01-13T01:56:21.286Z,1022.7
2019-01-13T01:57:01.916Z,1022.66
2019-01-13T01:57:42.560Z,1022.7
2019-01-13T01:58:23.179Z,1022.63
2019-01-13T01:59:03.801Z,1022.66
2019-01-13T01:59:44.469Z,1022.63
2019-01-13T02:00:25.091Z,1022.61
2019-01-13T02:01:05.706Z,1022.61
2019-01-13T02:01:46.317Z,1022.62
2019-01-13T02:02:26.921Z,1022.62
2019-01-13T02:03:07.532Z,1022.61
2019-01-13T02:03:48.225Z,1022.64
2019-01-13T02:04:28.813Z,1022.61
2019-01-13T02:05:09.420Z,1022.63
2019-01-13T02:05:50.069Z,1022.56
2019-01-13T02:06:30.690Z,1022.57
2019-01-13T02:07:11.314Z,1022.6
2019-01-13T02:07:51.983Z,1022.55
2019-01-13T02:08:32.560Z,1022.54
2019-01-13T02:09:13.202Z,1022.55
2019-01-13T02:09:53.838Z,1022.55
2019-01-13T02:10:34.440Z,1022.58
2019-01-13T02:11:15.062Z,1022.58
2019-01-13T02:11:55.744Z,1022.61
2019-01-13T02:12:36.358Z,1022.57
2019-01-13T02:13:16.963Z,1022.59
2019-01-13T02:13:57.571Z,1022.66
2019-01-13T02:14:38.184Z,1022.62
2019-01-13T02:15:18.794Z,1022.71
2019-01-13T02:15:59.420Z,1022.66
2019-01-13T02:16:40.110Z,1022.71
2019-01-13T02:17:20.734Z,1022.72
2019-01-13T02:18:01.346Z,1022.77
2019-01-13T02:18:41.986Z,1022.79
2019-01-13T02:19:22.582Z,1022.77
2019-01-13T02:20:03.210Z,1022.77
2019-01-13T02:20:43.825Z,1022.77
2019-01-13T02:21:24.456Z,1022.71
2019-01-13T02:22:05.080Z,1022.71
2019-01-13T02:22:45.720Z,1022.7
2019-01-13T02:23:26.342Z,1022.71
2019-01-13T02:24:06.981Z,1022.68
2019-01-13T02:24:47.594Z,1022.69
2019-01-13T02:25:28.202Z,1022.69
2019-01-13T02:26:08.842Z,1022.67
2019-01-13T02:26:49.450Z,1022.68
2019-01-13T02:27:30.078Z,1022.7
2019-01-13T02:28:10.721Z,1022.66
2019-01-13T02:28:51.322Z,1022.67
2019-01-13T02:29:31.942Z,1022.62
2019-01-13T02:30:12.527Z,1022.63
2019-01-13T02:30:53.140Z,1022.66
2019-01-13T02:31:33.814Z,1022.62
2019-01-13T02:32:14.396Z,1022.62
2019-01-13T02:32:55.026Z,1022.64
2019-01-13T02:33:35.665Z,1022.62
2019-01-13T02:34:16.285Z,1022.59
2019-01-13T02:34:56.894Z,1022.55
2019-01-13T02:35:37.477Z,1022.58
2019-01-13T02:36:18.096Z,1022.55
2019-01-13T02:36:58.699Z,1022.51
2019-01-13T02:37:39.300Z,1022.53
2019-01-13T02:38:19.912Z,1022.5
2019-01-13T02:39:00.540Z,1022.52
2019-01-13T02:39:41.156Z,1022.54
2019-01-13T02:40:21.756Z,1022.53
2019-01-13T02:41:02.370Z,1022.53
2019-01-13T02:41:43.002Z,1022.55
2019-01-13T02:42:23.613Z,1022.55
2019-01-13T02:43:04.236Z,1022.51
2019-01-13T02:43:44.861Z,1022.54
2019-01-13T02:44:25.462Z,1022.5
2019-01-13T02:45:06.077Z,1022.49
2019-01-13T02:45:46.677Z,1022.48
2019-01-13T02:46:27.309Z,1022.45
2019-01-13T02:47:07.934Z,1022.46
2019-01-13T02:47:48.529Z,1022.42
2019-01-13T02:48:29.138Z,1022.44
2019-01-13T02:49:09.742Z,1022.44
2019-01-13T02:49:50.358Z,1022.47
2019-01-13T02:50:30.983Z,1022.42
2019-01-13T02:51:11.594Z,1022.45
2019-01-13T02:51:52.240Z,1022.43
2019-01-13T02:52:32.857Z,1022.43
2019-01-13T02:53:13.474Z,1022.44
2019-01-13T02:53:54.112Z,1022.43
2019-01-13T02:54:34.742Z,1022.43
2019-01-13T02:55:15.360Z,1022.42
2019-01-13T02:55:55.958Z,1022.4
2019-01-13T02:56:36.562Z,1022.45
2019-01-13T02:57:17.222Z,1022.43
2019-01-13T02:57:57.882Z,1022.47
2019-01-13T02:58:38.446Z,1022.42
2019-01-13T02:59:19.080Z,1022.45
2019-01-13T02:59:59.694Z,1022.44
2019-01-13T03:00:40.297Z,1022.43
2019-01-13T03:01:20.924Z,1022.39
2019-01-13T03:02:01.533Z,1022.46
2019-01-13T03:02:42.142Z,1022.4
2019-01-13T03:03:22.814Z,1022.38
2019-01-13T03:04:03.464Z,1022.4
2019-01-13T03:04:44.081Z,1022.38
2019-01-13T03:05:24.713Z,1022.35
2019-01-13T03:06:05.330Z,1022.32
2019-01-13T03:06:45.974Z,1022.3
2019-01-13T03:07:26.568Z,1022.32
2019-01-13T03:08:07.178Z,1022.27
2019-01-13T03:08:47.806Z,1022.28
2019-01-13T03:09:28.408Z,1022.27
2019-01-13T03:10:09.010Z,1022.29
2019-01-13T03:10:49.629Z,1022.27
2019-01-13T03:11:30.224Z,1022.26
2019-01-13T03:12:10.834Z,1022.29
2019-01-13T03:12:51.462Z,1022.26
2019-01-13T03:13:32.070Z,1022.28
2019-01-13T03:14:12.670Z,1022.24
2019-01-13T03:14:53.274Z,1022.27
2019-01-13T03:15:33.887Z,1022.25
2019-01-13T03:16:14.496Z,1022.25
2019-01-13T03:16:55.104Z,1022.23
2019-01-13T03:17:35.744Z,1022.21
2019-01-13T03:18:16.384Z,1022.23
2019-01-13T03:18:57.018Z,1022.22
2019-01-13T03:19:37.640Z,1022.22
2019-01-13T03:20:18.282Z,1022.24
2019-01-13T03:20:58.894Z,1022.28
2019-01-13T03:21:39.498Z,1022.26
2019-01-13T03:22:20.120Z,1022.26
2019-01-13T03:23:00.755Z,1022.23
2019-01-13T03:23:42.274Z,1022.21
2019-01-13T03:24:23.654Z,1022.19
2019-01-13T03:25:03.756Z,1022.18
2019-01-13T03:25:44.358Z,1022.14
2019-01-13T03:26:24.995Z,1022.16
2019-01-13T03:27:05.633Z,1022.13
2019-01-13T03:27:46.265Z,1022.13
2019-01-13T03:28:26.873Z,1022.12
2019-01-13T03:29:07.486Z,1022.08
2019-01-13T03:29:48.112Z,1022.08
2019-01-13T03:30:28.721Z,1022.1
2019-01-13T03:31:11.557Z,1022.11
2019-01-13T03:31:49.918Z,1022.1
2019-01-13T03:32:30.529Z,1022.11
2019-01-13T03:33:11.254Z,1022.11
2019-01-13T03:33:51.866Z,1022.1
2019-01-13T03:34:32.566Z,1022.11
2019-01-13T03:35:13.135Z,1022.07
2019-01-13T03:35:53.748Z,1022.08
2019-01-13T03:36:34.356Z,1022.07
2019-01-13T03:37:14.953Z,1022.05
2019-01-13T03:37:55.609Z,1022.06
2019-01-13T03:38:36.208Z,1022.06
2019-01-13T03:39:16.847Z,1022.04
2019-01-13T03:39:57.480Z,1022.03
2019-01-13T03:40:38.086Z,1021.99
2019-01-13T03:41:18.713Z,1021.98
2019-01-13T03:41:59.324Z,1021.98
2019-01-13T03:42:39.947Z,1021.86
2019-01-13T03:43:20.561Z,1021.88
2019-01-13T03:44:01.178Z,1021.88
2019-01-13T03:44:41.807Z,1021.88
2019-01-13T03:45:22.399Z,1021.83
2019-01-13T03:46:03.019Z,1021.83
2019-01-13T03:46:43.648Z,1021.86
2019-01-13T03:47:24.278Z,1021.84
2019-01-13T03:48:04.891Z,1021.84
2019-01-13T03:48:45.512Z,1021.83
2019-01-13T03:49:26.145Z,1021.8
2019-01-13T03:50:06.753Z,1021.82
2019-01-13T03:50:47.363Z,1021.81
2019-01-13T03:51:27.970Z,1021.84
2019-01-13T03:52:08.568Z,1021.82
2019-01-13T03:52:52.986Z,1021.83
2019-01-13T03:53:29.784Z,1021.84
2019-01-13T03:54:10.415Z,1021.83
2019-01-13T03:54:51.016Z,1021.8
2019-01-13T03:55:31.711Z,1021.8
2019-01-13T03:56:12.322Z,1021.79
2019-01-13T03:56:52.953Z,1021.78
2019-01-13T03:57:33.558Z,1021.78
2019-01-13T03:58:14.181Z,1021.74
2019-01-13T03:58:54.805Z,1021.75
2019-01-13T03:59:35.458Z,1021.75
2019-01-13T04:00:16.082Z,1021.75
2019-01-13T04:00:56.729Z,1021.77
2019-01-13T04:01:37.384Z,1021.81
2019-01-13T04:02:17.990Z,1021.78
2019-01-13T04:02:58.600Z,1021.81
2019-01-13T04:03:39.207Z,1021.78
2019-01-13T04:04:19.839Z,1021.82
2019-01-13T04:05:00.441Z,1021.81
2019-01-13T04:05:41.055Z,1021.81
2019-01-13T04:06:21.655Z,1021.84
2019-01-13T04:07:02.267Z,1021.8
2019-01-13T04:07:42.877Z,1021.82
2019-01-13T04:08:23.490Z,1021.78
2019-01-13T04:09:04.099Z,1021.77
2019-01-13T04:09:44.716Z,1021.74
2019-01-13T04:10:25.334Z,1021.76
2019-01-13T04:11:05.944Z,1021.72
2019-01-13T04:11:46.559Z,1021.72
2019-01-13T04:12:27.227Z,1021.72
2019-01-13T04:13:07.845Z,1021.68
2019-01-13T04:13:48.451Z,1021.69
2019-01-13T04:14:29.051Z,1021.7
2019-01-13T04:15:09.655Z,1021.66
2019-01-13T04:15:50.287Z,1021.65
2019-01-13T04:16:30.900Z,1021.62
2019-01-13T04:17:11.614Z,1021.61
2019-01-13T04:17:52.262Z,1021.58
2019-01-13T04:18:32.958Z,1021.59
2019-01-13T04:19:13.584Z,1021.54
2019-01-13T04:19:54.242Z,1021.56
2019-01-13T04:20:34.871Z,1021.51
2019-01-13T04:21:15.538Z,1021.52
2019-01-13T04:21:56.267Z,1021.48
2019-01-13T04:22:36.934Z,1021.51
2019-01-13T04:23:17.512Z,1021.55
2019-01-13T04:23:58.122Z,1021.54
2019-01-13T04:24:38.730Z,1021.57
2019-01-13T04:25:19.391Z,1021.58
2019-01-13T04:26:00.021Z,1021.56
2019-01-13T04:26:40.783Z,1021.53
2019-01-13T04:27:21.547Z,1021.53
2019-01-13T04:28:02.243Z,1021.53
2019-01-13T04:28:42.943Z,1021.57
2019-01-13T04:29:23.562Z,1021.56
2019-01-13T04:30:04.205Z,1021.56
2019-01-13T04:30:44.932Z,1021.59
2019-01-13T04:31:26.795Z,1021.57
2019-01-13T04:32:06.225Z,1021.61
2019-01-13T04:32:46.858Z,1021.57
2019-01-13T04:33:27.517Z,1021.6
2019-01-13T04:34:08.687Z,1021.59
2019-01-13T04:34:49.375Z,1021.63
2019-01-13T04:35:30.059Z,1021.62
2019-01-13T04:36:10.650Z,1021.61
2019-01-13T04:36:51.283Z,1021.6
2019-01-13T04:37:32.425Z,1021.64
2019-01-13T04:38:13.083Z,1021.62
2019-01-13T04:38:53.935Z,1021.64
2019-01-13T04:39:34.703Z,1021.63
2019-01-13T04:40:15.355Z,1021.61
2019-01-13T04:40:55.997Z,1021.61
2019-01-13T04:41:36.641Z,1021.61
2019-01-13T04:42:17.241Z,1021.62
2019-01-13T04:42:57.919Z,1021.64
2019-01-13T04:43:38.583Z,1021.61
2019-01-13T04:44:19.258Z,1021.62
2019-01-13T04:44:59.900Z,1021.61
2019-01-13T04:45:40.516Z,1021.63
2019-01-13T04:46:21.127Z,1021.66
2019-01-13T04:47:01.770Z,1021.69
2019-01-13T04:47:42.427Z,1021.64
2019-01-13T04:48:23.041Z,1021.66
2019-01-13T04:49:03.687Z,1021.61
2019-01-13T04:49:44.323Z,1021.6
2019-01-13T04:50:24.997Z,1021.6
2019-01-13T04:51:05.843Z,1021.64
2019-01-13T04:51:46.491Z,1021.63
2019-01-13T04:52:27.127Z,1021.61
2019-01-13T04:53:07.779Z,1021.68
2019-01-13T04:53:48.487Z,1021.67
2019-01-13T04:54:29.151Z,1021.67
2019-01-13T04:55:09.778Z,1021.71
2019-01-13T04:55:50.401Z,1021.72
2019-01-13T04:56:31.041Z,1021.72
2019-01-13T04:57:11.655Z,1021.73
2019-01-13T04:57:52.281Z,1021.72
2019-01-13T04:58:32.916Z,1021.75
2019-01-13T04:59:13.578Z,1021.72
2019-01-13T04:59:54.233Z,1021.71
2019-01-13T05:00:34.950Z,1021.75
2019-01-13T05:01:15.585Z,1021.75
2019-01-13T05:01:56.229Z,1021.77
2019-01-13T05:02:36.883Z,1021.74
2019-01-13T05:03:17.507Z,1021.83
2019-01-13T05:03:58.141Z,1021.77
2019-01-13T05:04:38.821Z,1021.79
2019-01-13T05:05:19.558Z,1021.74
2019-01-13T05:06:00.187Z,1021.76
2019-01-13T05:06:40.889Z,1021.77
2019-01-13T05:07:21.647Z,1021.74
2019-01-13T05:08:02.368Z,1021.71
2019-01-13T05:08:42.995Z,1021.72
2019-01-13T05:09:23.659Z,1021.67
2019-01-13T05:10:04.340Z,1021.64
2019-01-13T05:10:44.972Z,1021.63
2019-01-13T05:11:25.607Z,1021.6
2019-01-13T05:12:06.259Z,1021.59
2019-01-13T05:12:46.918Z,1021.57
2019-01-13T05:13:27.562Z,1021.59
2019-01-13T05:14:08.169Z,1021.59
2019-01-13T05:14:48.840Z,1021.59
2019-01-13T05:15:29.490Z,1021.61
2019-01-13T05:16:10.101Z,1021.62
2019-01-13T05:16:50.728Z,1021.63
2019-01-13T05:17:31.405Z,1021.64
2019-01-13T05:18:12.131Z,1021.66
2019-01-13T05:18:52.813Z,1021.63
2019-01-13T05:19:33.426Z,1021.64
2019-01-13T05:20:14.147Z,1021.66
2019-01-13T05:20:54.739Z,1021.65
2019-01-13T05:21:35.411Z,1021.67
2019-01-13T05:22:16.075Z,1021.63
2019-01-13T05:22:56.808Z,1021.64
2019-01-13T05:23:37.319Z,1021.62
2019-01-13T05:24:17.955Z,1021.62
2019-01-13T05:24:58.571Z,1021.64
2019-01-13T05:25:39.209Z,1021.61
2019-01-13T05:26:20.016Z,1021.67
2019-01-13T05:27:00.712Z,1021.64
2019-01-13T05:27:41.344Z,1021.65
2019-01-13T05:28:22.111Z,1021.65
2019-01-13T05:29:02.789Z,1021.72
2019-01-13T05:29:43.433Z,1021.71
2019-01-13T05:30:24.081Z,1021.73
2019-01-13T05:31:04.788Z,1021.71
2019-01-13T05:31:45.426Z,1021.74
2019-01-13T05:32:26.131Z,1021.73
2019-01-13T05:33:06.775Z,1021.75
2019-01-13T05:33:47.425Z,1021.79
2019-01-13T05:34:28.040Z,1021.78
2019-01-13T05:35:08.688Z,1021.81
2019-01-13T05:35:49.290Z,1021.8
2019-01-13T05:36:29.920Z,1021.78
2019-01-13T05:37:10.561Z,1021.79
2019-01-13T05:37:51.197Z,1021.84
2019-01-13T05:38:31.828Z,1021.8
2019-01-13T05:39:12.437Z,1021.81
2019-01-13T05:39:53.101Z,1021.75
2019-01-13T05:40:33.702Z,1021.78
2019-01-13T05:41:14.293Z,1021.79
2019-01-13T05:41:54.919Z,1021.76
2019-01-13T05:42:35.517Z,1021.81
2019-01-13T05:43:16.171Z,1021.79
2019-01-13T05:43:56.819Z,1021.77
2019-01-13T05:44:37.495Z,1021.82
2019-01-13T05:45:18.157Z,1021.77
2019-01-13T05:45:58.858Z,1021.72
2019-01-13T05:46:39.793Z,1021.74
2019-01-13T05:47:20.475Z,1021.77
2019-01-13T05:48:01.256Z,1021.74
2019-01-13T05:48:41.927Z,1021.73
2019-01-13T05:49:22.573Z,1021.79
2019-01-13T05:50:03.257Z,1021.77
2019-01-13T05:50:43.825Z,1021.75
2019-01-13T05:51:24.459Z,1021.79
2019-01-13T05:52:05.100Z,1021.76
2019-01-13T05:52:45.723Z,1021.76
2019-01-13T05:53:26.351Z,1021.79
2019-01-13T05:54:06.951Z,1021.78
2019-01-13T05:54:47.585Z,1021.76
2019-01-13T05:55:28.303Z,1021.77
2019-01-13T05:56:08.913Z,1021.75
2019-01-13T05:56:49.539Z,1021.71
2019-01-13T05:57:30.173Z,1021.7
2019-01-13T05:58:10.785Z,1021.73
2019-01-13T05:58:51.425Z,1021.76
2019-01-13T05:59:32.033Z,1021.75
2019-01-13T06:00:12.641Z,1021.78
2019-01-13T06:00:53.253Z,1021.77
2019-01-13T06:01:34.053Z,1021.73
2019-01-13T06:02:14.473Z,1021.78
2019-01-13T06:02:55.629Z,1021.82
2019-01-13T06:03:36.238Z,1021.87
2019-01-13T06:04:16.871Z,1021.85
2019-01-13T06:04:57.501Z,1021.88
2019-01-13T06:05:38.117Z,1021.86
2019-01-13T06:06:18.739Z,1021.93
2019-01-13T06:06:59.353Z,1021.96
2019-01-13T06:07:39.973Z,1021.98
2019-01-13T06:08:20.583Z,1021.99
2019-01-13T06:09:01.205Z,1022.01
2019-01-13T06:09:41.846Z,1022.03
2019-01-13T06:10:22.469Z,1022.01
2019-01-13T06:11:03.091Z,1021.98
2019-01-13T06:11:43.725Z,1021.95
2019-01-13T06:12:24.861Z,1021.99
2019-01-13T06:13:05.440Z,1022
2019-01-13T06:13:46.059Z,1021.97
2019-01-13T06:14:26.670Z,1021.96
2019-01-13T06:15:07.325Z,1021.98
2019-01-13T06:15:47.955Z,1021.98
2019-01-13T06:16:28.579Z,1022.01
2019-01-13T06:17:09.191Z,1022.01
2019-01-13T06:17:49.886Z,1022.01
2019-01-13T06:18:30.541Z,1022.01
2019-01-13T06:19:11.179Z,1021.99
2019-01-13T06:19:51.790Z,1022
2019-01-13T06:20:32.428Z,1021.94
2019-01-13T06:21:13.038Z,1021.96
2019-01-13T06:21:53.678Z,1021.93
2019-01-13T06:22:34.368Z,1021.89
2019-01-13T06:23:14.927Z,1021.85
2019-01-13T06:23:55.569Z,1021.87
2019-01-13T06:24:36.191Z,1021.8
2019-01-13T06:25:16.797Z,1021.81
2019-01-13T06:25:57.419Z,1021.83
2019-01-13T06:26:38.143Z,1021.81
2019-01-13T06:27:18.769Z,1021.75
2019-01-13T06:27:59.613Z,1021.77
2019-01-13T06:28:40.205Z,1021.81
2019-01-13T06:29:20.801Z,1021.79
2019-01-13T06:30:01.426Z,1021.77
2019-01-13T06:30:42.030Z,1021.79
2019-01-13T06:31:22.630Z,1021.75
2019-01-13T06:32:03.255Z,1021.77
2019-01-13T06:32:43.893Z,1021.75
2019-01-13T06:33:24.524Z,1021.75
2019-01-13T06:34:05.131Z,1021.74
2019-01-13T06:34:45.753Z,1021.76
2019-01-13T06:35:26.384Z,1021.79
2019-01-13T06:36:06.994Z,1021.76
2019-01-13T06:36:47.598Z,1021.77
2019-01-13T06:37:28.217Z,1021.78
2019-01-13T06:38:08.809Z,1021.77
2019-01-13T06:38:49.420Z,1021.79
2019-01-13T06:39:30.035Z,1021.77
2019-01-13T06:40:10.640Z,1021.71
2019-01-13T06:40:51.247Z,1021.69
2019-01-13T06:41:31.869Z,1021.68
2019-01-13T06:42:12.518Z,1021.7
2019-01-13T06:42:53.163Z,1021.7
2019-01-13T06:43:33.783Z,1021.68
2019-01-13T06:44:14.411Z,1021.78
2019-01-13T06:44:55.025Z,1021.78
2019-01-13T06:45:35.659Z,1021.81
2019-01-13T06:46:16.340Z,1021.81
2019-01-13T06:46:56.903Z,1021.8
2019-01-13T06:47:37.523Z,1021.83
2019-01-13T06:48:18.125Z,1021.85
2019-01-13T06:48:58.741Z,1021.87
2019-01-13T06:49:39.378Z,1021.84
2019-01-13T06:50:20.023Z,1021.88
2019-01-13T06:51:00.648Z,1021.86
2019-01-13T06:51:41.280Z,1021.83
2019-01-13T06:52:21.903Z,1021.83
2019-01-13T06:53:02.519Z,1021.87
2019-01-13T06:53:43.146Z,1021.86
2019-01-13T06:54:23.760Z,1021.88
2019-01-13T06:55:04.395Z,1021.88
2019-01-13T06:55:45.001Z,1021.89
2019-01-13T06:56:25.616Z,1021.9
2019-01-13T06:57:06.229Z,1021.91
2019-01-13T06:57:46.883Z,1021.91
2019-01-13T06:58:27.497Z,1021.96
2019-01-13T06:59:08.108Z,1021.98
2019-01-13T06:59:48.715Z,1022.02
2019-01-13T07:00:29.320Z,1022.01
2019-01-13T07:01:09.929Z,1022.05
2019-01-13T07:01:50.526Z,1022.11
2019-01-13T07:02:31.131Z,1022.1
2019-01-13T07:03:11.750Z,1022.17
2019-01-13T07:03:52.374Z,1022.18
2019-01-13T07:04:32.980Z,1022.17
2019-01-13T07:05:13.600Z,1022.21
2019-01-13T07:05:54.225Z,1022.18
2019-01-13T07:06:34.845Z,1022.21
2019-01-13T07:07:15.481Z,1022.23
2019-01-13T07:07:56.076Z,1022.22
2019-01-13T07:08:36.693Z,1022.25
2019-01-13T07:09:17.309Z,1022.24
2019-01-13T07:09:57.986Z,1022.25
2019-01-13T07:10:38.606Z,1022.25
2019-01-13T07:11:19.244Z,1022.24
2019-01-13T07:11:59.891Z,1022.21
2019-01-13T07:12:40.510Z,1022.22
2019-01-13T07:13:21.146Z,1022.23
2019-01-13T07:14:01.816Z,1022.23
2019-01-13T07:14:42.440Z,1022.23
2019-01-13T07:15:23.074Z,1022.22
2019-01-13T07:16:03.695Z,1022.24
2019-01-13T07:16:44.311Z,1022.18
2019-01-13T07:17:24.930Z,1022.16
2019-01-13T07:18:05.540Z,1022.19
2019-01-13T07:18:46.147Z,1022.21
2019-01-13T07:19:26.800Z,1022.23
2019-01-13T07:20:07.427Z,1022.19
2019-01-13T07:20:48.052Z,1022.18
2019-01-13T07:21:28.654Z,1022.18
2019-01-13T07:22:09.292Z,1022.16
2019-01-13T07:22:49.894Z,1022.16
2019-01-13T07:23:30.501Z,1022.2
2019-01-13T07:24:11.108Z,1022.2
2019-01-13T07:24:51.725Z,1022.2
2019-01-13T07:25:32.341Z,1022.24
2019-01-13T07:26:12.959Z,1022.21
2019-01-13T07:26:53.636Z,1022.22
2019-01-13T07:27:34.266Z,1022.23
2019-01-13T07:28:14.897Z,1022.2
2019-01-13T07:28:55.515Z,1022.17
2019-01-13T07:29:36.121Z,1022.13
2019-01-13T07:30:16.715Z,1022.15
2019-01-13T07:30:57.346Z,1022.1
2019-01-13T07:31:37.946Z,1022.12
2019-01-13T07:32:18.581Z,1022.11
2019-01-13T07:32:59.193Z,1022.08
2019-01-13T07:33:39.823Z,1022.14
2019-01-13T07:34:20.438Z,1022.11
2019-01-13T07:35:01.056Z,1022.12
2019-01-13T07:35:41.739Z,1022.06
2019-01-13T07:36:22.351Z,1022.08
2019-01-13T07:37:03.007Z,1022.06
2019-01-13T07:37:43.647Z,1022.11
2019-01-13T07:38:24.553Z,1022.09
2019-01-13T07:39:04.896Z,1022.08
2019-01-13T07:39:45.517Z,1022.09
2019-01-13T07:40:26.107Z,1022.05
2019-01-13T07:41:06.756Z,1022.06
2019-01-13T07:41:47.359Z,1022.06
2019-01-13T07:42:28.002Z,1022.11
2019-01-13T07:43:08.636Z,1022.1
2019-01-13T07:43:49.309Z,1022.13
2019-01-13T07:44:29.918Z,1022.11
2019-01-13T07:45:10.964Z,1022.06
2019-01-13T07:45:51.620Z,1022.05
2019-01-13T07:46:32.312Z,1022.06
2019-01-13T07:47:12.979Z,1022.07
2019-01-13T07:47:53.595Z,1022.15
2019-01-13T07:48:34.209Z,1022.1
2019-01-13T07:49:14.898Z,1022.11
2019-01-13T07:49:55.527Z,1022.1
2019-01-13T07:50:36.141Z,1022.11
2019-01-13T07:51:16.752Z,1022.18
2019-01-13T07:51:57.433Z,1022.14
2019-01-13T07:52:38.039Z,1022.17
2019-01-13T07:53:18.664Z,1022.2
2019-01-13T07:53:59.291Z,1022.22
2019-01-13T07:54:40.070Z,1022.26
2019-01-13T07:55:20.688Z,1022.31
2019-01-13T07:56:01.463Z,1022.26
2019-01-13T07:56:42.131Z,1022.29
2019-01-13T07:57:22.779Z,1022.26
2019-01-13T07:58:03.390Z,1022.26
2019-01-13T07:58:44.018Z,1022.25
2019-01-13T07:59:24.749Z,1022.21
2019-01-13T08:00:05.394Z,1022.19
2019-01-13T08:00:45.998Z,1022.23
2019-01-13T08:01:26.757Z,1022.2
2019-01-13T08:02:07.362Z,1022.21
2019-01-13T08:02:48.028Z,1022.27
2019-01-13T08:03:28.682Z,1022.29
2019-01-13T08:04:09.312Z,1022.26
2019-01-13T08:04:49.966Z,1022.3
2019-01-13T08:05:30.584Z,1022.31
2019-01-13T08:06:11.211Z,1022.35
2019-01-13T08:06:51.845Z,1022.32
2019-01-13T08:07:32.437Z,1022.34
2019-01-13T08:08:13.055Z,1022.4
2019-01-13T08:08:53.647Z,1022.4
2019-01-13T08:09:34.689Z,1022.4
2019-01-13T08:10:15.346Z,1022.41
2019-01-13T08:10:56.020Z,1022.4
2019-01-13T08:11:36.644Z,1022.4
2019-01-13T08:12:17.271Z,1022.39
2019-01-13T08:12:57.861Z,1022.38
2019-01-13T08:13:38.460Z,1022.38
2019-01-13T08:14:19.064Z,1022.4
2019-01-13T08:14:59.696Z,1022.41